Del Norte — WDC2280 — position and weather

sailwx.info

Track history (hours):
 
Tides and Currents Weather Stations Pressure Air Temp Water Temp Dewpoint Dewpoint Depression Visibility Wind Speed Wind Dir Waves Ship Positions

Del Norte

Owner: Golden Gate Bridge,Hwy & Transportation District, Larkspur, CA. More information available from US FCC via Universal Licensing System and Coast Guard Vessel Documentation Center.

Last reported at 2017-Dec-16 05:48 UTC. Time now 2017-Dec-16 11:18 UTC.
Position N 37°54' W 122°26'.

Length 48 m.

Type: High speed craft. MMSI: 366990520.

Date/timePositionNaut miles runAvg speedWind from/ knotsBaromVisibWave heightAir tempDewpointWater temp
2017-Dec-16 05:48N 37°54' W 122°26'621.0
2017-Dec-16 05:30N 37°48' W 122°24'6 5.6
2017-Dec-16 04:25N 37°54' W 122°26'615.2
2017-Dec-16 04:00N 37°48' W 122°24'10 8.6
2017-Dec-16 02:53N 37°56' W 122°30'1025.1
2017-Dec-16 02:30N 37°48' W 122°24'5 9.8
2017-Dec-16 02:00N 37°52' W 122°25'2 2.4
2017-Dec-16 01:15N 37°54' W 122°26'727.2
2017-Dec-16 01:00N 37°48' W 122°24'2 4.9
2017-Dec-16 00:30N 37°50' W 122°24'3 3.5
2017-Dec-15 23:42N 37°53' W 122°25'526.2
2017-Dec-15 23:30N 37°48' W 122°24'6 3.5
2017-Dec-15 21:41N 37°54' W 122°26'635.1
2017-Dec-15 21:30N 37°48' W 122°23'5 4.0
2017-Dec-15 20:09N 37°53' W 122°26'535.8
2017-Dec-15 20:01N 37°48' W 122°23'5 2.8
2017-Dec-15 18:23N 37°53' W 122°25'512.9
2017-Dec-15 18:00N 37°48' W 122°24'6 4.5
2017-Dec-15 16:45N 37°53' W 122°25'624.2
2017-Dec-15 16:31N 37°48' W 122°24'1018.9
2017-Dec-15 16:00N 37°56' W 122°29'3 5.1
2017-Dec-15 15:31N 37°55' W 122°27'510.8
2017-Dec-15 15:01N 37°50' W 122°24'916.9
2017-Dec-15 14:30N 37°57' W 122°31'0 0.0
2017-Dec-15 05:59N 37°57' W 122°30'1021.5
2017-Dec-15 05:30N 37°48' W 122°24'918.4
2017-Dec-15 05:01N 37°56' W 122°29'0 0.8
2017-Dec-15 04:30N 37°56' W 122°29'919.0
2017-Dec-15 04:00N 37°48' W 122°24'0 0.0
2017-Dec-15 02:30N 37°48' W 122°24'0 0.0
2017-Dec-15 01:01N 37°48' W 122°24'5 9.3
2017-Dec-15 00:31N 37°52' W 122°25'3 0.5
2017-Dec-14 18:31N 37°55' W 122°27'815.0
2017-Dec-14 18:00N 37°48' W 122°24'816.8
2017-Dec-14 17:31N 37°55' W 122°28'2 4.9
2017-Dec-14 17:00N 37°57' W 122°30'1020.9
2017-Dec-14 16:30N 37°48' W 122°24'1018.7
2017-Dec-14 16:00N 37°56' W 122°29'7 7.1
2017-Dec-14 15:01N 37°50' W 122°24'815.8
2017-Dec-14 14:30N 37°57' W 122°30'0 0.0
2017-Dec-14 04:35N 37°57' W 122°30'110.5
2017-Dec-14 04:30N 37°56' W 122°29'918.9
2017-Dec-14 04:01N 37°48' W 122°24'1020.0
2017-Dec-14 03:30N 37°56' W 122°30'0 0.8
2017-Dec-14 03:00N 37°57' W 122°30'1021.1
2017-Dec-14 02:30N 37°48' W 122°24'3 5.5
2017-Dec-14 02:00N 37°50' W 122°24'816.0
2017-Dec-14 01:31N 37°57' W 122°30'1020.9
2017-Dec-14 01:00N 37°48' W 122°24'4 8.6
2017-Dec-14 00:30N 37°52' W 122°25'612.8
2017-Dec-14 00:00N 37°57' W 122°30'1021.1
2017-Dec-13 23:30N 37°48' W 122°24'917.6
2017-Dec-13 23:00N 37°56' W 122°28'2 3.8
2017-Dec-13 22:30N 37°57' W 122°30'0 0.0
2017-Dec-13 22:00N 37°57' W 122°30'1019.9
2017-Dec-13 21:31N 37°49' W 122°23'3 5.6
2017-Dec-13 21:01N 37°51' W 122°25'714.0
2017-Dec-13 20:30N 37°57' W 122°30'1020.2
2017-Dec-13 20:00N 37°49' W 122°23'3 5.7
2017-Dec-13 19:31N 37°51' W 122°25'714.1
2017-Dec-13 19:00N 37°57' W 122°30'3 6.7
2017-Dec-13 18:30N 37°55' W 122°27'815.1
2017-Dec-13 18:00N 37°48' W 122°24'714.3
2017-Dec-13 17:30N 37°54' W 122°27'4 7.2
2017-Dec-13 17:00N 37°57' W 122°30'1020.9
2017-Dec-13 16:30N 37°48' W 122°24'918.9
2017-Dec-13 16:00N 37°56' W 122°29'2 5.0
2017-Dec-13 15:30N 37°55' W 122°27'612.0
2017-Dec-13 15:00N 37°49' W 122°24'918.5
2017-Dec-13 14:30N 37°57' W 122°30'0 0.0
2017-Dec-13 14:00N 37°57' W 122°30'0 0.0
2017-Dec-13 04:37N 37°57' W 122°30'215.3
2017-Dec-13 04:31N 37°56' W 122°29'918.0
2017-Dec-13 04:00N 37°48' W 122°24'1020.0
2017-Dec-13 03:30N 37°56' W 122°30'0 0.8
2017-Dec-13 03:00N 37°57' W 122°30'1021.0
2017-Dec-13 02:30N 37°48' W 122°24'4 7.8
2017-Dec-13 02:01N 37°51' W 122°25'713.5
2017-Dec-13 01:30N 37°57' W 122°30'1021.0
2017-Dec-13 01:00N 37°48' W 122°24'5 9.6
2017-Dec-13 00:30N 37°52' W 122°25'611.8
2017-Dec-13 00:00N 37°57' W 122°30'1021.0
2017-Dec-12 23:30N 37°48' W 122°24'1019.7
2017-Dec-12 23:00N 37°56' W 122°30'1 1.4
2017-Dec-12 22:30N 37°57' W 122°31'0 0.0
2017-Dec-12 22:00N 37°57' W 122°31'1020.9
2017-Dec-12 21:31N 37°48' W 122°23'3 5.3
2017-Dec-12 21:01N 37°51' W 122°24'813.6
2017-Dec-12 20:27N 37°57' W 122°30'1022.1
2017-Dec-12 20:00N 37°48' W 122°23'4 7.5
2017-Dec-12 19:31N 37°52' W 122°25'713.0
2017-Dec-12 19:00N 37°57' W 122°30'4 8.6
2017-Dec-12 18:30N 37°54' W 122°26'713.2
2017-Dec-12 18:00N 37°48' W 122°24'612.5
2017-Dec-12 17:30N 37°54' W 122°26'4 8.7
2017-Dec-12 17:00N 37°57' W 122°30'1020.7
2017-Dec-12 16:30N 37°48' W 122°24'1019.1
2017-Dec-12 16:00N 37°56' W 122°30'4 8.7
2017-Dec-12 15:30N 37°53' W 122°26'3 6.1
2017-Dec-12 15:01N 37°50' W 122°24'816.0
2017-Dec-12 14:30N 37°57' W 122°30'0 0.0
2017-Dec-12 14:00N 37°57' W 122°30'0 0.0
2017-Dec-12 04:34N 37°57' W 122°30'114.4
2017-Dec-12 04:30N 37°56' W 122°29'918.9
2017-Dec-12 04:00N 37°48' W 122°24'1020.4
2017-Dec-12 03:30N 37°57' W 122°30'0 0.6
2017-Dec-12 03:00N 37°57' W 122°30'1021.1
2017-Dec-12 02:30N 37°48' W 122°24'5 9.6
2017-Dec-12 02:00N 37°52' W 122°25'612.0
2017-Dec-12 01:30N 37°57' W 122°30'1020.7
2017-Dec-12 01:00N 37°48' W 122°24'2 4.5
2017-Dec-12 00:31N 37°50' W 122°24'816.5
2017-Dec-12 00:00N 37°57' W 122°30'1021.0
2017-Dec-11 23:30N 37°48' W 122°24'918.9
2017-Dec-11 23:00N 37°56' W 122°29'1 2.4
2017-Dec-11 22:30N 37°57' W 122°30'0 0.0
2017-Dec-11 22:00N 37°57' W 122°30'1019.7
2017-Dec-11 21:31N 37°49' W 122°23'3 6.1
2017-Dec-11 21:01N 37°52' W 122°25'713.5
2017-Dec-11 20:30N 37°57' W 122°30'1019.5
2017-Dec-11 20:01N 37°49' W 122°23'4 8.3
2017-Dec-11 19:31N 37°53' W 122°25'611.1
2017-Dec-11 19:00N 37°57' W 122°30'3 6.8
2017-Dec-11 18:30N 37°55' W 122°27'815.1
2017-Dec-11 18:00N 37°48' W 122°24'612.8
2017-Dec-11 17:31N 37°54' W 122°26'4 8.2
2017-Dec-11 17:00N 37°57' W 122°30'1020.7
2017-Dec-11 16:30N 37°48' W 122°24'1019.3
2017-Dec-11 16:01N 37°56' W 122°29'3 6.3
2017-Dec-11 15:30N 37°54' W 122°26'5 9.8
2017-Dec-11 15:00N 37°50' W 122°24'917.5
2017-Dec-11 14:31N 37°57' W 122°30'  
2017-Dec-09 06:00N 37°57' W 122°30'1020.4
2017-Dec-09 05:31N 37°48' W 122°24'918.7
2017-Dec-09 05:00N 37°56' W 122°29'1 2.2
2017-Dec-09 04:30N 37°56' W 122°28'817.0
2017-Dec-09 04:00N 37°48' W 122°24'1019.7
2017-Dec-09 03:30N 37°56' W 122°30'0 0.8
2017-Dec-09 03:00N 37°57' W 122°30'1021.0
2017-Dec-09 02:30N 37°48' W 122°24'3 5.6
2017-Dec-09 02:01N 37°50' W 122°24'815.5
2017-Dec-09 01:30N 37°57' W 122°30'1020.9
2017-Dec-09 01:00N 37°48' W 122°24'2 4.9
2017-Dec-09 00:30N 37°50' W 122°24'816.3
2017-Dec-09 00:00N 37°57' W 122°30'1021.0
2017-Dec-08 23:30N 37°48' W 122°24'918.1
2017-Dec-08 23:00N 37°56' W 122°29'2 3.4
2017-Dec-08 22:30N 37°57' W 122°31'0 0.0
2017-Dec-08 22:00N 37°57' W 122°31'0 0.0
2017-Dec-08 21:30N 37°57' W 122°31'0 0.0
2017-Dec-08 21:00N 37°57' W 122°31'0 0.0
2017-Dec-08 20:23N 37°57' W 122°31'0 0.0
2017-Dec-08 20:00N 37°57' W 122°31'0 0.0
2017-Dec-08 19:30N 37°57' W 122°31'0 0.0
2017-Dec-08 19:00N 37°57' W 122°31'0 0.5
2017-Dec-08 18:30N 37°57' W 122°30'1020.8
2017-Dec-08 18:00N 37°48' W 122°24'714.4
2017-Dec-08 17:30N 37°54' W 122°27'4 7.0
2017-Dec-08 17:00N 37°57' W 122°30'1020.9
2017-Dec-08 16:30N 37°48' W 122°24'919.0
2017-Dec-08 16:01N 37°56' W 122°29'3 5.5
2017-Dec-08 15:31N 37°54' W 122°27'5 9.8
2017-Dec-08 15:01N 37°50' W 122°24'816.8
2017-Dec-08 14:30N 37°57' W 122°31'0 0.0
2017-Dec-08 14:00N 37°57' W 122°31'0 0.0
2017-Dec-08 06:01N 37°57' W 122°30'011.6
2017-Dec-08 06:00N 37°56' W 122°30'1020.6
2017-Dec-08 05:31N 37°48' W 122°24'1019.0
2017-Dec-08 05:00N 37°56' W 122°29'1 2.3
2017-Dec-08 04:31N 37°56' W 122°28'917.1
2017-Dec-08 04:01N 37°48' W 122°24'1019.8
2017-Dec-08 03:30N 37°56' W 122°30'0 0.7
2017-Dec-08 03:00N 37°57' W 122°30'1020.8
2017-Dec-08 02:30N 37°48' W 122°24'3 6.3
2017-Dec-08 02:00N 37°51' W 122°25'815.1
2017-Dec-08 01:30N 37°57' W 122°30'1021.0
2017-Dec-08 01:01N 37°48' W 122°24'4 8.3
2017-Dec-08 00:31N 37°52' W 122°25'712.9
2017-Dec-08 00:00N 37°57' W 122°30'1021.3
2017-Dec-07 23:30N 37°48' W 122°24'918.3
2017-Dec-07 23:01N 37°56' W 122°29'2 3.1
2017-Dec-07 22:30N 37°57' W 122°30'0 0.0
2017-Dec-07 21:59N 37°57' W 122°30'1021.4
2017-Dec-07 21:30N 37°48' W 122°23'4 8.3
2017-Dec-07 21:01N 37°52' W 122°25'612.7
2017-Dec-07 20:30N 37°57' W 122°30'1021.1
2017-Dec-07 20:01N 37°48' W 122°23'4 8.5
2017-Dec-07 19:30N 37°52' W 122°25'6 8.8
2017-Dec-07 18:47N 37°57' W 122°30'413.3
2017-Dec-07 18:30N 37°54' W 122°27'714.2
2017-Dec-07 18:00N 37°48' W 122°24'714.8
2017-Dec-07 17:31N 37°55' W 122°27'3 6.4
2017-Dec-07 17:00N 37°57' W 122°30'1021.3
2017-Dec-07 16:30N 37°48' W 122°24'918.9
2017-Dec-07 16:00N 37°56' W 122°29'3 6.9
2017-Dec-07 15:30N 37°54' W 122°26'4 7.8
2017-Dec-07 15:01N 37°50' W 122°24'816.5
2017-Dec-07 14:30N 37°57' W 122°31'0 0.0
2017-Dec-07 14:00N 37°57' W 122°31'0 0.0
2017-Dec-07 05:59N 37°57' W 122°30'1021.2
2017-Dec-07 05:30N 37°48' W 122°24'918.4
2017-Dec-07 05:00N 37°56' W 122°29'0 0.0
2017-Dec-07 04:30N 37°56' W 122°29'918.3
2017-Dec-07 04:00N 37°48' W 122°24'1020.2
2017-Dec-07 03:30N 37°57' W 122°30'0 0.5
2017-Dec-07 03:00N 37°57' W 122°30'1021.0
2017-Dec-07 02:30N 37°48' W 122°24'5 9.7
2017-Dec-07 02:01N 37°52' W 122°25'611.7
2017-Dec-07 01:30N 37°57' W 122°30'1021.0
2017-Dec-07 01:00N 37°48' W 122°24'4 8.4
2017-Dec-07 00:31N 37°52' W 122°25'712.9
2017-Dec-07 00:00N 37°57' W 122°30'1021.2
2017-Dec-06 23:30N 37°48' W 122°24'919.0
2017-Dec-06 23:01N 37°56' W 122°29'1 2.2
2017-Dec-06 22:30N 37°57' W 122°30'0 0.0
2017-Dec-06 22:00N 37°57' W 122°30'1020.6
2017-Dec-06 21:31N 37°48' W 122°23'3 6.5
2017-Dec-06 21:01N 37°51' W 122°25'  
Track history (hours):
 
Tides and Currents Weather Stations Pressure Air Temp Water Temp Dewpoint Dewpoint Depression Visibility Wind Speed Wind Dir Waves Ship Positions

Del Norte

Owner: Golden Gate Bridge,Hwy & Transportation District, Larkspur, CA. More information available from US FCC via Universal Licensing System and Coast Guard Vessel Documentation Center.

Last reported at 2017-Dec-16 05:48 UTC. Time now 2017-Dec-16 11:18 UTC.
Position N 37°54' W 122°26'.

Length 48 m.

Type: High speed craft. MMSI: 366990520.

Date/timePositionNaut miles runAvg speedWind from/ knotsBaromVisibWave heightAir tempDewpointWater temp
2017-Dec-16 05:48N 37°54' W 122°26'621.0
2017-Dec-16 05:30N 37°48' W 122°24'6 5.6
2017-Dec-16 04:25N 37°54' W 122°26'615.2
2017-Dec-16 04:00N 37°48' W 122°24'10 8.6
2017-Dec-16 02:53N 37°56' W 122°30'1025.1
2017-Dec-16 02:30N 37°48' W 122°24'5 9.8
2017-Dec-16 02:00N 37°52' W 122°25'2 2.4
2017-Dec-16 01:15N 37°54' W 122°26'727.2
2017-Dec-16 01:00N 37°48' W 122°24'2 4.9
2017-Dec-16 00:30N 37°50' W 122°24'3 3.5
2017-Dec-15 23:42N 37°53' W 122°25'526.2
2017-Dec-15 23:30N 37°48' W 122°24'6 3.5
2017-Dec-15 21:41N 37°54' W 122°26'635.1
2017-Dec-15 21:30N 37°48' W 122°23'5 4.0
2017-Dec-15 20:09N 37°53' W 122°26'535.8
2017-Dec-15 20:01N 37°48' W 122°23'5 2.8
2017-Dec-15 18:23N 37°53' W 122°25'512.9
2017-Dec-15 18:00N 37°48' W 122°24'6 4.5
2017-Dec-15 16:45N 37°53' W 122°25'624.2
2017-Dec-15 16:31N 37°48' W 122°24'1018.9
2017-Dec-15 16:00N 37°56' W 122°29'3 5.1
2017-Dec-15 15:31N 37°55' W 122°27'510.8
2017-Dec-15 15:01N 37°50' W 122°24'916.9
2017-Dec-15 14:30N 37°57' W 122°31'0 0.0
2017-Dec-15 05:59N 37°57' W 122°30'1021.5
2017-Dec-15 05:30N 37°48' W 122°24'918.4
2017-Dec-15 05:01N 37°56' W 122°29'0 0.8
2017-Dec-15 04:30N 37°56' W 122°29'919.0
2017-Dec-15 04:00N 37°48' W 122°24'0 0.0
2017-Dec-15 02:30N 37°48' W 122°24'0 0.0
2017-Dec-15 01:01N 37°48' W 122°24'5 9.3
2017-Dec-15 00:31N 37°52' W 122°25'3 0.5
2017-Dec-14 18:31N 37°55' W 122°27'815.0
2017-Dec-14 18:00N 37°48' W 122°24'816.8
2017-Dec-14 17:31N 37°55' W 122°28'2 4.9
2017-Dec-14 17:00N 37°57' W 122°30'1020.9
2017-Dec-14 16:30N 37°48' W 122°24'1018.7
2017-Dec-14 16:00N 37°56' W 122°29'7 7.1
2017-Dec-14 15:01N 37°50' W 122°24'815.8
2017-Dec-14 14:30N 37°57' W 122°30'0 0.0
2017-Dec-14 04:35N 37°57' W 122°30'110.5
2017-Dec-14 04:30N 37°56' W 122°29'918.9
2017-Dec-14 04:01N 37°48' W 122°24'1020.0
2017-Dec-14 03:30N 37°56' W 122°30'0 0.8
2017-Dec-14 03:00N 37°57' W 122°30'1021.1
2017-Dec-14 02:30N 37°48' W 122°24'3 5.5
2017-Dec-14 02:00N 37°50' W 122°24'816.0
2017-Dec-14 01:31N 37°57' W 122°30'1020.9
2017-Dec-14 01:00N 37°48' W 122°24'4 8.6
2017-Dec-14 00:30N 37°52' W 122°25'612.8
2017-Dec-14 00:00N 37°57' W 122°30'1021.1
2017-Dec-13 23:30N 37°48' W 122°24'917.6
2017-Dec-13 23:00N 37°56' W 122°28'2 3.8
2017-Dec-13 22:30N 37°57' W 122°30'0 0.0
2017-Dec-13 22:00N 37°57' W 122°30'1019.9
2017-Dec-13 21:31N 37°49' W 122°23'3 5.6
2017-Dec-13 21:01N 37°51' W 122°25'714.0
2017-Dec-13 20:30N 37°57' W 122°30'1020.2
2017-Dec-13 20:00N 37°49' W 122°23'3 5.7
2017-Dec-13 19:31N 37°51' W 122°25'714.1
2017-Dec-13 19:00N 37°57' W 122°30'3 6.7
2017-Dec-13 18:30N 37°55' W 122°27'815.1
2017-Dec-13 18:00N 37°48' W 122°24'714.3
2017-Dec-13 17:30N 37°54' W 122°27'4 7.2
2017-Dec-13 17:00N 37°57' W 122°30'1020.9
2017-Dec-13 16:30N 37°48' W 122°24'918.9
2017-Dec-13 16:00N 37°56' W 122°29'2 5.0
2017-Dec-13 15:30N 37°55' W 122°27'612.0
2017-Dec-13 15:00N 37°49' W 122°24'918.5
2017-Dec-13 14:30N 37°57' W 122°30'0 0.0
2017-Dec-13 14:00N 37°57' W 122°30'0 0.0
2017-Dec-13 04:37N 37°57' W 122°30'215.3
2017-Dec-13 04:31N 37°56' W 122°29'918.0
2017-Dec-13 04:00N 37°48' W 122°24'1020.0
2017-Dec-13 03:30N 37°56' W 122°30'0 0.8
2017-Dec-13 03:00N 37°57' W 122°30'1021.0
2017-Dec-13 02:30N 37°48' W 122°24'4 7.8
2017-Dec-13 02:01N 37°51' W 122°25'713.5
2017-Dec-13 01:30N 37°57' W 122°30'1021.0
2017-Dec-13 01:00N 37°48' W 122°24'5 9.6
2017-Dec-13 00:30N 37°52' W 122°25'611.8
2017-Dec-13 00:00N 37°57' W 122°30'1021.0
2017-Dec-12 23:30N 37°48' W 122°24'1019.7
2017-Dec-12 23:00N 37°56' W 122°30'1 1.4
2017-Dec-12 22:30N 37°57' W 122°31'0 0.0
2017-Dec-12 22:00N 37°57' W 122°31'1020.9
2017-Dec-12 21:31N 37°48' W 122°23'3 5.3
2017-Dec-12 21:01N 37°51' W 122°24'813.6
2017-Dec-12 20:27N 37°57' W 122°30'1022.1
2017-Dec-12 20:00N 37°48' W 122°23'4 7.5
2017-Dec-12 19:31N 37°52' W 122°25'713.0
2017-Dec-12 19:00N 37°57' W 122°30'4 8.6
2017-Dec-12 18:30N 37°54' W 122°26'713.2
2017-Dec-12 18:00N 37°48' W 122°24'612.5
2017-Dec-12 17:30N 37°54' W 122°26'4 8.7
2017-Dec-12 17:00N 37°57' W 122°30'1020.7
2017-Dec-12 16:30N 37°48' W 122°24'1019.1
2017-Dec-12 16:00N 37°56' W 122°30'4 8.7
2017-Dec-12 15:30N 37°53' W 122°26'3 6.1
2017-Dec-12 15:01N 37°50' W 122°24'816.0
2017-Dec-12 14:30N 37°57' W 122°30'0 0.0
2017-Dec-12 14:00N 37°57' W 122°30'0 0.0
2017-Dec-12 04:34N 37°57' W 122°30'114.4
2017-Dec-12 04:30N 37°56' W 122°29'918.9
2017-Dec-12 04:00N 37°48' W 122°24'1020.4
2017-Dec-12 03:30N 37°57' W 122°30'0 0.6
2017-Dec-12 03:00N 37°57' W 122°30'1021.1
2017-Dec-12 02:30N 37°48' W 122°24'5 9.6
2017-Dec-12 02:00N 37°52' W 122°25'612.0
2017-Dec-12 01:30N 37°57' W 122°30'1020.7
2017-Dec-12 01:00N 37°48' W 122°24'2 4.5
2017-Dec-12 00:31N 37°50' W 122°24'816.5
2017-Dec-12 00:00N 37°57' W 122°30'1021.0
2017-Dec-11 23:30N 37°48' W 122°24'918.9
2017-Dec-11 23:00N 37°56' W 122°29'1 2.4
2017-Dec-11 22:30N 37°57' W 122°30'0 0.0
2017-Dec-11 22:00N 37°57' W 122°30'1019.7
2017-Dec-11 21:31N 37°49' W 122°23'3 6.1
2017-Dec-11 21:01N 37°52' W 122°25'713.5
2017-Dec-11 20:30N 37°57' W 122°30'1019.5
2017-Dec-11 20:01N 37°49' W 122°23'4 8.3
2017-Dec-11 19:31N 37°53' W 122°25'611.1
2017-Dec-11 19:00N 37°57' W 122°30'3 6.8
2017-Dec-11 18:30N 37°55' W 122°27'815.1
2017-Dec-11 18:00N 37°48' W 122°24'612.8
2017-Dec-11 17:31N 37°54' W 122°26'4 8.2
2017-Dec-11 17:00N 37°57' W 122°30'1020.7
2017-Dec-11 16:30N 37°48' W 122°24'1019.3
2017-Dec-11 16:01N 37°56' W 122°29'3 6.3
2017-Dec-11 15:30N 37°54' W 122°26'5 9.8
2017-Dec-11 15:00N 37°50' W 122°24'917.5
2017-Dec-11 14:31N 37°57' W 122°30'  
2017-Dec-09 06:00N 37°57' W 122°30'1020.4
2017-Dec-09 05:31N 37°48' W 122°24'918.7
2017-Dec-09 05:00N 37°56' W 122°29'1 2.2
2017-Dec-09 04:30N 37°56' W 122°28'817.0
2017-Dec-09 04:00N 37°48' W 122°24'1019.7
2017-Dec-09 03:30N 37°56' W 122°30'0 0.8
2017-Dec-09 03:00N 37°57' W 122°30'1021.0
2017-Dec-09 02:30N 37°48' W 122°24'3 5.6
2017-Dec-09 02:01N 37°50' W 122°24'815.5
2017-Dec-09 01:30N 37°57' W 122°30'1020.9
2017-Dec-09 01:00N 37°48' W 122°24'2 4.9
2017-Dec-09 00:30N 37°50' W 122°24'816.3
2017-Dec-09 00:00N 37°57' W 122°30'1021.0
2017-Dec-08 23:30N 37°48' W 122°24'918.1
2017-Dec-08 23:00N 37°56' W 122°29'2 3.4
2017-Dec-08 22:30N 37°57' W 122°31'0 0.0
2017-Dec-08 22:00N 37°57' W 122°31'0 0.0
2017-Dec-08 21:30N 37°57' W 122°31'0 0.0
2017-Dec-08 21:00N 37°57' W 122°31'0 0.0
2017-Dec-08 20:23N 37°57' W 122°31'0 0.0
2017-Dec-08 20:00N 37°57' W 122°31'0 0.0
2017-Dec-08 19:30N 37°57' W 122°31'0 0.0
2017-Dec-08 19:00N 37°57' W 122°31'0 0.5
2017-Dec-08 18:30N 37°57' W 122°30'1020.8
2017-Dec-08 18:00N 37°48' W 122°24'714.4
2017-Dec-08 17:30N 37°54' W 122°27'4 7.0
2017-Dec-08 17:00N 37°57' W 122°30'1020.9
2017-Dec-08 16:30N 37°48' W 122°24'919.0
2017-Dec-08 16:01N 37°56' W 122°29'3 5.5
2017-Dec-08 15:31N 37°54' W 122°27'5 9.8
2017-Dec-08 15:01N 37°50' W 122°24'816.8
2017-Dec-08 14:30N 37°57' W 122°31'0 0.0
2017-Dec-08 14:00N 37°57' W 122°31'0 0.0
2017-Dec-08 06:01N 37°57' W 122°30'011.6
2017-Dec-08 06:00N 37°56' W 122°30'1020.6
2017-Dec-08 05:31N 37°48' W 122°24'1019.0
2017-Dec-08 05:00N 37°56' W 122°29'1 2.3
2017-Dec-08 04:31N 37°56' W 122°28'917.1
2017-Dec-08 04:01N 37°48' W 122°24'1019.8
2017-Dec-08 03:30N 37°56' W 122°30'0 0.7
2017-Dec-08 03:00N 37°57' W 122°30'1020.8
2017-Dec-08 02:30N 37°48' W 122°24'3 6.3
2017-Dec-08 02:00N 37°51' W 122°25'815.1
2017-Dec-08 01:30N 37°57' W 122°30'1021.0
2017-Dec-08 01:01N 37°48' W 122°24'4 8.3
2017-Dec-08 00:31N 37°52' W 122°25'712.9
2017-Dec-08 00:00N 37°57' W 122°30'1021.3
2017-Dec-07 23:30N 37°48' W 122°24'918.3
2017-Dec-07 23:01N 37°56' W 122°29'2 3.1
2017-Dec-07 22:30N 37°57' W 122°30'0 0.0
2017-Dec-07 21:59N 37°57' W 122°30'1021.4
2017-Dec-07 21:30N 37°48' W 122°23'4 8.3
2017-Dec-07 21:01N 37°52' W 122°25'612.7
2017-Dec-07 20:30N 37°57' W 122°30'1021.1
2017-Dec-07 20:01N 37°48' W 122°23'4 8.5
2017-Dec-07 19:30N 37°52' W 122°25'6 8.8
2017-Dec-07 18:47N 37°57' W 122°30'413.3
2017-Dec-07 18:30N 37°54' W 122°27'714.2
2017-Dec-07 18:00N 37°48' W 122°24'714.8
2017-Dec-07 17:31N 37°55' W 122°27'3 6.4
2017-Dec-07 17:00N 37°57' W 122°30'1021.3
2017-Dec-07 16:30N 37°48' W 122°24'918.9
2017-Dec-07 16:00N 37°56' W 122°29'3 6.9
2017-Dec-07 15:30N 37°54' W 122°26'4 7.8
2017-Dec-07 15:01N 37°50' W 122°24'816.5
2017-Dec-07 14:30N 37°57' W 122°31'0 0.0
2017-Dec-07 14:00N 37°57' W 122°31'0 0.0
2017-Dec-07 05:59N 37°57' W 122°30'1021.2
2017-Dec-07 05:30N 37°48' W 122°24'918.4
2017-Dec-07 05:00N 37°56' W 122°29'0 0.0
2017-Dec-07 04:30N 37°56' W 122°29'918.3
2017-Dec-07 04:00N 37°48' W 122°24'1020.2
2017-Dec-07 03:30N 37°57' W 122°30'0 0.5
2017-Dec-07 03:00N 37°57' W 122°30'1021.0
2017-Dec-07 02:30N 37°48' W 122°24'5 9.7
2017-Dec-07 02:01N 37°52' W 122°25'611.7
2017-Dec-07 01:30N 37°57' W 122°30'1021.0
2017-Dec-07 01:00N 37°48' W 122°24'4 8.4
2017-Dec-07 00:31N 37°52' W 122°25'712.9
2017-Dec-07 00:00N 37°57' W 122°30'1021.2
2017-Dec-06 23:30N 37°48' W 122°24'919.0
2017-Dec-06 23:01N 37°56' W 122°29'1 2.2
2017-Dec-06 22:30N 37°57' W 122°30'0 0.0
2017-Dec-06 22:00N 37°57' W 122°30'1020.6
2017-Dec-06 21:31N 37°48' W 122°23'3 6.5
2017-Dec-06 21:01N 37°51' W 122°25'  

Dump ship's entire track history